ADDS METAR Data INFO
IDs: Format: Raw Decoded Include TAF

Data at: 2041 UTC 20 Jul 2018

KTIP 202035Z AUTO 28016G24KT 10SM BKN027 BKN032 OVC065 26/21 A2974 RMK AO2 T02580209
KTIP 202015Z AUTO 26019G24KT 10SM SCT027 BKN043 OVC065 25/21 A2974 RMK AO2 T02520205
KTIP 201955Z AUTO 26018G26KT 10SM BKN027 BKN040 OVC047 25/20 A2974 RMK AO2 T02520203
KTIP 201935Z AUTO 27016G24KT 10SM SCT025 BKN047 OVC090 26/21 A2974 RMK AO2 T02610210
KTIP 201915Z AUTO 27015G22KT 10SM SCT025 BKN035 OVC055 26/21 A2974 RMK AO2 T02560211
KTIP 201855Z AUTO 25013G23KT 10SM SCT027 BKN043 OVC065 25/21 A2974 RMK AO2 T02540208
KTIP 201835Z AUTO 26012G17KT 10SM SCT029 BKN039 OVC048 26/21 A2975 RMK AO2 T02560214
KTIP 201815Z AUTO 28011G16KT 10SM SCT029 BKN041 OVC050 26/21 A2976 RMK AO2 T02560209
KTIP 201755Z AUTO 26009G19KT 10SM SCT027 BKN041 OVC047 25/20 A2976 RMK AO2 T02480203 10277 20230
KTIP 201735Z AUTO 25010KT 10SM SCT025 SCT032 BKN038 25/21 A2976 RMK AO2 T02510209
KTIP 201715Z AUTO 27006KT 10SM SCT032 SCT120 25/22 A2976 RMK AO2 T02520217
KTIP 201655Z AUTO 26010G15KT 10SM SCT031 SCT120 25/22 A2976 RMK AO2 T02500216
KTIP 201635Z AUTO 26011G15KT 10SM -RA SCT030 SCT046 BKN060 24/21 A2976 RMK AO2 T02390214
KTIP 201615Z AUTO 27011G14KT 10SM -RA SCT043 SCT060 BKN075 24/21 A2976 RMK AO2 T02430205
KTIP 201555Z AUTO 26009G20KT 10SM SCT036 SCT042 SCT050 25/20 A2976 RMK AO2 T02500200
KTIP 201535Z AUTO 25012G22KT 10SM SCT036 SCT044 26/20 A2975 RMK AO2 T02600204
KTIP 201515Z AUTO 25015G23KT 10SM CLR 26/20 A2974 RMK AO2 T02620198
KTIP 201455Z AUTO 24013G20KT 10SM CLR 28/21 A2974 RMK AO2 T02750213
KTIP 201435Z AUTO 24017G24KT 10SM CLR 27/22 A2974 RMK AO2 T02700215
KTIP 201415Z AUTO 22015G22KT 10SM CLR 27/22 A2974 RMK AO2 T02670220
KTIP 201355Z AUTO 22014G18KT 10SM CLR 26/22 A2975 RMK AO2 T02590222
KTIP 201335Z AUTO 22012G18KT 10SM CLR 25/22 A2976 RMK AO2 T02520219
KTIP 201315Z AUTO 22010G18KT 10SM CLR 25/22 A2976 RMK AO2 T02450215
KTIP 201255Z AUTO 22012G17KT 10SM CLR 24/21 A2976 RMK AO2 T02380212
KTIP 201235Z AUTO 22014G18KT 10SM CLR 23/21 A2976 RMK AO2 T02320209
KTIP 201215Z AUTO 22012G18KT 10SM CLR 23/20 A2977 RMK AO2 T02300204
KTIP 201155Z AUTO 22010G17KT 10SM CLR 23/20 A2977 RMK AO2 T02300198 10243 20200
KTIP 201135Z AUTO 22011G15KT 10SM CLR 22/19 A2977 RMK AO2 T02220192
KTIP 201115Z AUTO 22011KT 10SM CLR 22/19 A2976 RMK AO2 T02150187
KTIP 201055Z AUTO 22012G15KT 10SM CLR 21/19 A2976 RMK AO2 T02120186
KTIP 201015Z AUTO 23008KT 10SM SCT027 SCT036 SCT041 21/18 A2976 RMK AO2 T02140181
KTIP 200950Z AUTO 22007KT 10SM BKN029 BKN037 21/18 A2976 RMK AO2 T02100180
KTIP 200935Z AUTO 22006KT 10SM BKN033 BKN040 21/18 A2976 RMK AO2 T02100180
KTIP 200915Z AUTO 23006KT 10SM SCT037 20/18 A2977 RMK AO2 T02040181
KTIP 200855Z AUTO 23006KT 10SM CLR 20/18 A2977 RMK AO2 T02000180
KTIP 200835Z AUTO 23003KT 10SM CLR 21/18 A2978 RMK AO2 T02070181
KTIP 200815Z AUTO 22004KT 10SM CLR 21/19 A2979 RMK AO2 T02110189
KTIP 200755Z AUTO 23006KT 10SM CLR 22/20 A2979 RMK AO2 T02170197
KTIP 200735Z AUTO 23005KT 10SM CLR 22/20 A2979 RMK AO2 T02160204
KTIP 200715Z AUTO 17005KT 10SM CLR 23/21 A2978 RMK AO2 T02250205
KTIP 200655Z AUTO 17006KT 10SM CLR 23/21 A2978 RMK AO2 T02330206
KTIP 200635Z AUTO 18010KT 10SM CLR 24/21 A2979 RMK AO2 T02410205
KTIP 200615Z AUTO 17011G16KT 10SM CLR 24/20 A2979 RMK AO2 LTG DSNT S T02410203
KTIP 200555Z AUTO 16011G16KT 10SM CLR 24/20 A2979 RMK AO2 LTG DSNT S T02400201 10270 20220 402860168
KTIP 200535Z AUTO 17010G16KT 10SM CLR 24/20 A2980 RMK AO2 LTG DSNT SW T02380200
KTIP 200515Z AUTO 17011KT 10SM CLR 24/20 A2981 RMK AO2 LTG DSNT SW T02360197
KTIP 200455Z AUTO 17010KT 10SM CLR 24/20 A2981 RMK AO2 T02350196
KTIP 200435Z AUTO 16009KT 10SM CLR 23/20 A2982 RMK AO2 LTG DSNT SW T02300200
KTIP 200415Z AUTO 15009KT 10SM CLR 22/20 A2982 RMK AO2 T02230201
KTIP 200355Z AUTO 15009KT 10SM CLR 22/20 A2983 RMK AO2 T02210200
KTIP 200335Z AUTO 15007KT 10SM CLR 22/20 A2985 RMK AO2 T02230200
KTIP 200315Z AUTO 17006KT 10SM CLR 23/20 A2986 RMK AO2 T02260201
KTIP 200255Z AUTO 17007KT 10SM CLR 23/21 A2986 RMK AO2 T02250205
KTIP 200235Z AUTO 17005KT 10SM CLR 23/21 A2986 RMK AO2 T02260207
KTIP 200215Z AUTO 18006KT 10SM CLR 23/21 A2986 RMK AO2 T02250206
KTIP 200155Z AUTO 18005KT 10SM SCT060 23/21 A2986 RMK AO2 T02250206
KTIP 200135Z AUTO 17004KT 10SM SCT060 23/21 A2986 RMK AO2 T02340206
KTIP 200115Z AUTO 16005KT 10SM CLR 24/21 A2986 RMK AO2 T02440207
KTIP 200055Z AUTO 16004KT 10SM CLR 25/21 A2986 RMK AO2 T02500210
KTIP 200035Z AUTO 15005KT 10SM CLR 26/21 A2985 RMK AO2 T02610212
KTIP 200015Z AUTO 16005KT 10SM SCT070 27/21 A2986 RMK AO2 T02700208
KTIP 192355Z AUTO 16006KT 10SM CLR 27/21 A2986 RMK AO2 T02700206 10286 20265
KTIP 192335Z AUTO 16006KT 10SM CLR 27/21 A2986 RMK AO2 T02700205
KTIP 192315Z AUTO 16006KT 10SM CLR 27/21 A2986 RMK AO2 T02680208
KTIP 192255Z AUTO 17007KT 10SM CLR 27/20 A2988 RMK AO2 T02670201
KTIP 192235Z AUTO 17007KT 10SM CLR 27/21 A2988 RMK AO2 T02680206
KTIP 192215Z AUTO 17005KT 10SM SCT095 27/20 A2989 RMK AO2 T02720204
KTIP 192155Z AUTO 17006KT 10SM CLR 27/21 A2990 RMK AO2 T02710206
KTIP 192135Z AUTO 17007KT 10SM SCT120 27/20 A2991 RMK AO2 T02710204
KTIP 192115Z AUTO 17007KT 10SM SCT090 28/20 A2991 RMK AO2 T02760201
KTIP 192055Z AUTO 17006KT 10SM BKN090 28/20 A2992 RMK AO2 T02760204
KTIP 192035Z AUTO 17006KT 10SM SCT100 28/20 A2993 RMK AO2 LTG DSNT NW T02780204
KTIP 192015Z AUTO 17007KT 10SM BKN100 BKN120 28/20 A2993 RMK AO2 T02790203
KTIP 191955Z AUTO 18006KT 10SM OVC100 28/20 A2994 RMK AO2 T02780197
KTIP 191935Z AUTO 18007KT 10SM BKN100 28/19 A2994 RMK AO2 T02800191
KTIP 191915Z AUTO 18009KT 10SM SCT110 28/20 A2994 RMK AO2 LTG DSNT W AND NW T02840195
KTIP 191855Z AUTO 15011KT 10SM SCT110 28/19 A2994 RMK AO2 T02830189
KTIP 191835Z AUTO 18010KT 10SM SCT110 28/20 A2995 RMK AO2 LTG DSNT W AND NW T02820198
KTIP 191815Z AUTO 17008KT 10SM BKN110 28/19 A2995 RMK AO2 T02780194
KTIP 191755Z AUTO 17009KT 10SM SCT110 28/19 A2995 RMK AO2 T02770189 10284 20183
KTIP 191735Z AUTO 16007KT 10SM CLR 28/19 A2996 RMK AO2 T02810192
KTIP 191715Z AUTO 18010KT 10SM CLR 28/20 A2997 RMK AO2 T02810197
KTIP 191655Z AUTO 16008KT 10SM CLR 28/19 A2998 RMK AO2 T02760193
KTIP 191635Z AUTO 17008KT 10SM CLR 27/19 A2998 RMK AO2 T02730193
KTIP 191615Z AUTO 15007KT 10SM CLR 27/20 A2998 RMK AO2 T02670195
KTIP 191555Z AUTO 15007KT 10SM CLR 26/20 A2998 RMK AO2 T02630200
KTIP 191535Z AUTO 15005KT 10SM CLR 26/20 A2998 RMK AO2 T02560197
KTIP 191515Z AUTO 15004KT 10SM CLR 25/20 A2999 RMK AO2 T02510195
KTIP 191455Z AUTO 16006KT 10SM CLR 24/19 A2999 RMK AO2 T02430192
KTIP 191435Z AUTO 14006KT 10SM CLR 24/19 A2999 RMK AO2 T02370192
KTIP 191415Z AUTO 16005KT 10SM CLR 23/18 A2999 RMK AO2 T02300183
KTIP 191355Z AUTO 14005KT 10SM CLR 22/18 A3000 RMK AO2 T02200180
KTIP 191335Z AUTO 13005KT 10SM CLR 21/17 A3000 RMK AO2 T02110173
KTIP 191315Z AUTO 14003KT 10SM CLR 21/17 A3000 RMK AO2 T02090170
KTIP 191255Z AUTO 12005KT 10SM CLR 20/17 A3000 RMK AO2 T02000165
KTIP 191235Z AUTO 11004KT 10SM CLR 19/16 A3000 RMK AO2 T01890160
KTIP 191215Z AUTO 00000KT 10SM CLR 19/16 A3001 RMK AO2 T01850160
KTIP 191155Z AUTO 08003KT 10SM CLR 19/16 A3000 RMK AO2 T01850155 10185 20168
KTIP 191135Z AUTO 08003KT 10SM CLR 18/15 A3000 RMK AO2 T01780150
KTIP 191115Z AUTO 09003KT 10SM CLR 17/15 A3000 RMK AO2 T01700145
KTIP 191055Z AUTO 08003KT 10SM CLR 17/15 A3000 RMK AO2 T01700145
KTIP 191035Z AUTO 08004KT 10SM CLR 17/14 A2999 RMK AO2 T01700143
KTIP 191015Z AUTO 07004KT 10SM CLR 17/14 A2999 RMK AO2 T01700141
KTIP 190955Z AUTO 07003KT 10SM CLR 18/14 A3000 RMK AO2 T01750138
KTIP 190935Z AUTO 00000KT 10SM CLR 17/14 A3000 RMK AO2 T01730137
KTIP 190915Z AUTO 07003KT 10SM CLR 18/14 A3000 RMK AO2 T01750136
KTIP 190855Z AUTO 07003KT 10SM CLR 18/14 A3001 RMK AO2 T01800137